sensor_id;sensor_type;location;lat;lon;timestamp;P1;durP1;ratioP1;P2;durP2;ratioP2
12861;SDS011;6499;66.348;14.134;2023-07-09T00:01:35;3.37;;;1.87;;
12861;SDS011;6499;66.348;14.134;2023-07-09T00:04:02;2.17;;;1.73;;
12861;SDS011;6499;66.348;14.134;2023-07-09T00:06:29;2.20;;;1.67;;
12861;SDS011;6499;66.348;14.134;2023-07-09T00:08:57;2.03;;;1.83;;
12861;SDS011;6499;66.348;14.134;2023-07-09T00:11:23;2.27;;;1.70;;
12861;SDS011;6499;66.348;14.134;2023-07-09T00:13:50;2.00;;;1.77;;
12861;SDS011;6499;66.348;14.134;2023-07-09T00:16:19;2.03;;;1.53;;
12861;SDS011;6499;66.348;14.134;2023-07-09T00:18:46;1.80;;;1.60;;
12861;SDS011;6499;66.348;14.134;2023-07-09T00:21:13;1.70;;;1.60;;
12861;SDS011;6499;66.348;14.134;2023-07-09T00:23:40;3.23;;;1.70;;
12861;SDS011;6499;66.348;14.134;2023-07-09T00:26:09;2.83;;;1.83;;
12861;SDS011;6499;66.348;14.134;2023-07-09T00:28:38;1.67;;;1.50;;
12861;SDS011;6499;66.348;14.134;2023-07-09T00:31:07;1.73;;;1.63;;
12861;SDS011;6499;66.348;14.134;2023-07-09T00:33:34;1.50;;;1.40;;
12861;SDS011;6499;66.348;14.134;2023-07-09T00:36:04;1.90;;;1.47;;
12861;SDS011;6499;66.348;14.134;2023-07-09T00:38:36;1.87;;;1.37;;
12861;SDS011;6499;66.348;14.134;2023-07-09T00:41:06;1.83;;;1.50;;
12861;SDS011;6499;66.348;14.134;2023-07-09T00:43:35;1.47;;;1.37;;
12861;SDS011;6499;66.348;14.134;2023-07-09T00:46:14;2.50;;;1.47;;
12861;SDS011;6499;66.348;14.134;2023-07-09T00:48:42;2.00;;;1.50;;
12861;SDS011;6499;66.348;14.134;2023-07-09T00:51:09;1.50;;;1.40;;
12861;SDS011;6499;66.348;14.134;2023-07-09T00:53:38;1.53;;;1.43;;
12861;SDS011;6499;66.348;14.134;2023-07-09T00:56:12;2.43;;;1.33;;
12861;SDS011;6499;66.348;14.134;2023-07-09T00:58:42;1.93;;;1.37;;
12861;SDS011;6499;66.348;14.134;2023-07-09T01:01:13;1.40;;;1.30;;
12861;SDS011;6499;66.348;14.134;2023-07-09T01:03:42;1.50;;;1.40;;
12861;SDS011;6499;66.348;14.134;2023-07-09T01:06:10;1.60;;;1.50;;
12861;SDS011;6499;66.348;14.134;2023-07-09T01:08:37;1.60;;;1.50;;
12861;SDS011;6499;66.348;14.134;2023-07-09T01:11:13;1.50;;;1.40;;
12861;SDS011;6499;66.348;14.134;2023-07-09T01:13:42;1.47;;;1.23;;
12861;SDS011;6499;66.348;14.134;2023-07-09T01:16:10;1.50;;;1.40;;
12861;SDS011;6499;66.348;14.134;2023-07-09T01:18:36;1.60;;;1.50;;
12861;SDS011;6499;66.348;14.134;2023-07-09T01:21:08;1.70;;;1.50;;
12861;SDS011;6499;66.348;14.134;2023-07-09T01:23:40;1.93;;;1.73;;
12861;SDS011;6499;66.348;14.134;2023-07-09T01:26:09;3.03;;;1.70;;
12861;SDS011;6499;66.348;14.134;2023-07-09T01:28:36;1.87;;;1.40;;
12861;SDS011;6499;66.348;14.134;2023-07-09T01:31:03;1.77;;;1.40;;
12861;SDS011;6499;66.348;14.134;2023-07-09T01:33:30;1.70;;;1.30;;
12861;SDS011;6499;66.348;14.134;2023-07-09T01:35:56;1.67;;;1.30;;
12861;SDS011;6499;66.348;14.134;2023-07-09T01:38:26;1.73;;;1.60;;
12861;SDS011;6499;66.348;14.134;2023-07-09T01:40:55;1.57;;;1.47;;
12861;SDS011;6499;66.348;14.134;2023-07-09T01:43:22;1.47;;;1.37;;
12861;SDS011;6499;66.348;14.134;2023-07-09T01:45:50;3.90;;;1.43;;
12861;SDS011;6499;66.348;14.134;2023-07-09T01:48:17;2.10;;;1.30;;
12861;SDS011;6499;66.348;14.134;2023-07-09T01:50:45;1.50;;;1.40;;
12861;SDS011;6499;66.348;14.134;2023-07-09T01:53:14;1.40;;;1.30;;
12861;SDS011;6499;66.348;14.134;2023-07-09T01:55:43;1.83;;;1.30;;
12861;SDS011;6499;66.348;14.134;2023-07-09T01:58:10;1.83;;;1.50;;
12861;SDS011;6499;66.348;14.134;2023-07-09T02:00:39;2.63;;;1.80;;
12861;SDS011;6499;66.348;14.134;2023-07-09T02:03:06;1.60;;;1.50;;
12861;SDS011;6499;66.348;14.134;2023-07-09T02:05:34;1.90;;;1.70;;
12861;SDS011;6499;66.348;14.134;2023-07-09T02:08:02;2.70;;;1.50;;
12861;SDS011;6499;66.348;14.134;2023-07-09T02:10:28;1.80;;;1.60;;
12861;SDS011;6499;66.348;14.134;2023-07-09T02:12:57;2.30;;;1.57;;
12861;SDS011;6499;66.348;14.134;2023-07-09T02:15:23;1.53;;;1.43;;
12861;SDS011;6499;66.348;14.134;2023-07-09T02:17:49;2.40;;;1.50;;
12861;SDS011;6499;66.348;14.134;2023-07-09T02:20:17;1.53;;;1.30;;
12861;SDS011;6499;66.348;14.134;2023-07-09T02:22:44;2.03;;;1.40;;
12861;SDS011;6499;66.348;14.134;2023-07-09T02:25:11;1.67;;;1.30;;
12861;SDS011;6499;66.348;14.134;2023-07-09T02:27:38;1.80;;;1.40;;
12861;SDS011;6499;66.348;14.134;2023-07-09T02:30:07;1.50;;;1.40;;
12861;SDS011;6499;66.348;14.134;2023-07-09T02:32:33;1.87;;;1.60;;
12861;SDS011;6499;66.348;14.134;2023-07-09T02:35:00;1.43;;;1.33;;
12861;SDS011;6499;66.348;14.134;2023-07-09T02:37:26;1.83;;;1.50;;
12861;SDS011;6499;66.348;14.134;2023-07-09T02:39:53;2.27;;;1.40;;
12861;SDS011;6499;66.348;14.134;2023-07-09T02:42:21;1.60;;;1.50;;
12861;SDS011;6499;66.348;14.134;2023-07-09T02:44:49;1.40;;;1.30;;
12861;SDS011;6499;66.348;14.134;2023-07-09T02:47:17;2.30;;;1.60;;
12861;SDS011;6499;66.348;14.134;2023-07-09T02:49:43;3.40;;;1.63;;
12861;SDS011;6499;66.348;14.134;2023-07-09T02:52:11;1.63;;;1.40;;
12861;SDS011;6499;66.348;14.134;2023-07-09T02:54:38;1.70;;;1.57;;
12861;SDS011;6499;66.348;14.134;2023-07-09T02:57:05;2.00;;;1.60;;
12861;SDS011;6499;66.348;14.134;2023-07-09T02:59:34;2.30;;;1.60;;
12861;SDS011;6499;66.348;14.134;2023-07-09T03:02:00;1.40;;;1.30;;
12861;SDS011;6499;66.348;14.134;2023-07-09T03:04:29;2.10;;;1.50;;
12861;SDS011;6499;66.348;14.134;2023-07-09T03:06:56;1.63;;;1.53;;
12861;SDS011;6499;66.348;14.134;2023-07-09T03:09:24;3.40;;;1.50;;
12861;SDS011;6499;66.348;14.134;2023-07-09T03:11:51;1.97;;;1.30;;
12861;SDS011;6499;66.348;14.134;2023-07-09T03:14:17;2.33;;;1.50;;
12861;SDS011;6499;66.348;14.134;2023-07-09T03:16:44;3.43;;;1.53;;
12861;SDS011;6499;66.348;14.134;2023-07-09T03:19:10;1.57;;;1.47;;
12861;SDS011;6499;66.348;14.134;2023-07-09T03:21:38;1.80;;;1.70;;
12861;SDS011;6499;66.348;14.134;2023-07-09T03:24:05;1.60;;;1.50;;
12861;SDS011;6499;66.348;14.134;2023-07-09T03:26:32;2.23;;;1.70;;
12861;SDS011;6499;66.348;14.134;2023-07-09T03:28:58;3.17;;;1.70;;
12861;SDS011;6499;66.348;14.134;2023-07-09T03:31:25;1.67;;;1.57;;
12861;SDS011;6499;66.348;14.134;2023-07-09T03:33:51;2.03;;;1.70;;
12861;SDS011;6499;66.348;14.134;2023-07-09T03:36:18;2.70;;;1.60;;
12861;SDS011;6499;66.348;14.134;2023-07-09T03:38:46;1.77;;;1.67;;
12861;SDS011;6499;66.348;14.134;2023-07-09T03:41:13;1.50;;;1.40;;
12861;SDS011;6499;66.348;14.134;2023-07-09T03:43:39;2.50;;;1.60;;
12861;SDS011;6499;66.348;14.134;2023-07-09T03:46:06;1.70;;;1.60;;
12861;SDS011;6499;66.348;14.134;2023-07-09T03:48:33;1.80;;;1.70;;
12861;SDS011;6499;66.348;14.134;2023-07-09T03:50:59;1.50;;;1.40;;
12861;SDS011;6499;66.348;14.134;2023-07-09T03:53:26;2.47;;;1.70;;
12861;SDS011;6499;66.348;14.134;2023-07-09T03:55:54;2.00;;;1.53;;
12861;SDS011;6499;66.348;14.134;2023-07-09T03:58:21;1.90;;;1.70;;
12861;SDS011;6499;66.348;14.134;2023-07-09T04:00:47;2.17;;;1.70;;
12861;SDS011;6499;66.348;14.134;2023-07-09T04:03:14;1.80;;;1.70;;
12861;SDS011;6499;66.348;14.134;2023-07-09T04:05:40;1.77;;;1.60;;
12861;SDS011;6499;66.348;14.134;2023-07-09T04:08:07;2.17;;;1.70;;
12861;SDS011;6499;66.348;14.134;2023-07-09T04:10:33;2.30;;;2.07;;
12861;SDS011;6499;66.348;14.134;2023-07-09T04:13:01;2.83;;;1.70;;
12861;SDS011;6499;66.348;14.134;2023-07-09T04:15:28;2.30;;;1.40;;
12861;SDS011;6499;66.348;14.134;2023-07-09T04:17:55;2.17;;;1.70;;
12861;SDS011;6499;66.348;14.134;2023-07-09T04:20:21;1.70;;;1.43;;
12861;SDS011;6499;66.348;14.134;2023-07-09T04:22:48;2.47;;;1.67;;
12861;SDS011;6499;66.348;14.134;2023-07-09T04:25:15;1.63;;;1.53;;
12861;SDS011;6499;66.348;14.134;2023-07-09T04:27:42;1.83;;;1.67;;
12861;SDS011;6499;66.348;14.134;2023-07-09T04:30:11;2.63;;;1.57;;
12861;SDS011;6499;66.348;14.134;2023-07-09T04:32:37;1.70;;;1.40;;
12861;SDS011;6499;66.348;14.134;2023-07-09T04:35:04;1.70;;;1.60;;
12861;SDS011;6499;66.348;14.134;2023-07-09T04:37:31;1.50;;;1.40;;
12861;SDS011;6499;66.348;14.134;2023-07-09T04:39:58;3.00;;;1.70;;
12861;SDS011;6499;66.348;14.134;2023-07-09T04:42:24;1.77;;;1.63;;
12861;SDS011;6499;66.348;14.134;2023-07-09T04:44:51;2.60;;;2.00;;
12861;SDS011;6499;66.348;14.134;2023-07-09T04:47:19;1.70;;;1.50;;
12861;SDS011;6499;66.348;14.134;2023-07-09T04:49:46;2.30;;;1.73;;
12861;SDS011;6499;66.348;14.134;2023-07-09T04:52:12;1.63;;;1.53;;
12861;SDS011;6499;66.348;14.134;2023-07-09T04:54:40;1.97;;;1.70;;
12861;SDS011;6499;66.348;14.134;2023-07-09T04:57:08;1.60;;;1.50;;
12861;SDS011;6499;66.348;14.134;2023-07-09T04:59:35;2.03;;;1.60;;
12861;SDS011;6499;66.348;14.134;2023-07-09T05:02:01;1.80;;;1.70;;
12861;SDS011;6499;66.348;14.134;2023-07-09T05:04:30;1.80;;;1.40;;
12861;SDS011;6499;66.348;14.134;2023-07-09T05:06:56;1.83;;;1.73;;
12861;SDS011;6499;66.348;14.134;2023-07-09T05:09:23;1.77;;;1.67;;
12861;SDS011;6499;66.348;14.134;2023-07-09T05:11:50;1.70;;;1.60;;
12861;SDS011;6499;66.348;14.134;2023-07-09T05:14:17;2.10;;;1.63;;
12861;SDS011;6499;66.348;14.134;2023-07-09T05:16:43;2.10;;;1.53;;
12861;SDS011;6499;66.348;14.134;2023-07-09T05:19:10;1.83;;;1.63;;
12861;SDS011;6499;66.348;14.134;2023-07-09T05:21:38;1.97;;;1.60;;
12861;SDS011;6499;66.348;14.134;2023-07-09T05:24:05;2.43;;;1.57;;
12861;SDS011;6499;66.348;14.134;2023-07-09T05:26:32;2.83;;;1.77;;
12861;SDS011;6499;66.348;14.134;2023-07-09T05:28:58;1.87;;;1.70;;
12861;SDS011;6499;66.348;14.134;2023-07-09T05:31:25;1.90;;;1.70;;
12861;SDS011;6499;66.348;14.134;2023-07-09T05:33:51;1.77;;;1.67;;
12861;SDS011;6499;66.348;14.134;2023-07-09T05:36:18;2.17;;;1.57;;
12861;SDS011;6499;66.348;14.134;2023-07-09T05:38:46;2.13;;;1.53;;
12861;SDS011;6499;66.348;14.134;2023-07-09T05:41:13;1.50;;;1.40;;
12861;SDS011;6499;66.348;14.134;2023-07-09T05:43:41;2.00;;;1.80;;
12861;SDS011;6499;66.348;14.134;2023-07-09T05:46:08;2.10;;;1.90;;
12861;SDS011;6499;66.348;14.134;2023-07-09T05:48:35;2.30;;;1.73;;
12861;SDS011;6499;66.348;14.134;2023-07-09T05:51:02;1.70;;;1.60;;
12861;SDS011;6499;66.348;14.134;2023-07-09T05:53:28;2.77;;;1.63;;
12861;SDS011;6499;66.348;14.134;2023-07-09T05:55:58;1.60;;;1.50;;
12861;SDS011;6499;66.348;14.134;2023-07-09T05:58:25;1.93;;;1.73;;
12861;SDS011;6499;66.348;14.134;2023-07-09T06:00:51;2.10;;;1.70;;
12861;SDS011;6499;66.348;14.134;2023-07-09T06:03:19;2.13;;;1.60;;
12861;SDS011;6499;66.348;14.134;2023-07-09T06:05:46;1.60;;;1.50;;
12861;SDS011;6499;66.348;14.134;2023-07-09T06:08:14;2.47;;;1.50;;
12861;SDS011;6499;66.348;14.134;2023-07-09T06:10:49;1.97;;;1.60;;
12861;SDS011;6499;66.348;14.134;2023-07-09T06:13:18;1.50;;;1.40;;
12861;SDS011;6499;66.348;14.134;2023-07-09T06:15:45;2.20;;;1.70;;
12861;SDS011;6499;66.348;14.134;2023-07-09T06:18:12;1.67;;;1.57;;
12861;SDS011;6499;66.348;14.134;2023-07-09T06:20:38;1.87;;;1.50;;
12861;SDS011;6499;66.348;14.134;2023-07-09T06:23:05;1.83;;;1.73;;
12861;SDS011;6499;66.348;14.134;2023-07-09T06:25:32;2.93;;;1.57;;
12861;SDS011;6499;66.348;14.134;2023-07-09T06:27:58;1.93;;;1.70;;
12861;SDS011;6499;66.348;14.134;2023-07-09T06:30:26;1.60;;;1.50;;
12861;SDS011;6499;66.348;14.134;2023-07-09T06:32:53;1.60;;;1.50;;
12861;SDS011;6499;66.348;14.134;2023-07-09T06:35:20;2.43;;;1.60;;
12861;SDS011;6499;66.348;14.134;2023-07-09T06:37:46;1.60;;;1.50;;
12861;SDS011;6499;66.348;14.134;2023-07-09T06:40:13;1.83;;;1.50;;
12861;SDS011;6499;66.348;14.134;2023-07-09T06:42:39;3.77;;;1.63;;
12861;SDS011;6499;66.348;14.134;2023-07-09T06:45:06;1.93;;;1.50;;
12861;SDS011;6499;66.348;14.134;2023-07-09T06:47:34;2.20;;;1.90;;
12861;SDS011;6499;66.348;14.134;2023-07-09T06:50:01;1.70;;;1.57;;
12861;SDS011;6499;66.348;14.134;2023-07-09T06:52:27;2.77;;;1.80;;
12861;SDS011;6499;66.348;14.134;2023-07-09T06:54:54;2.17;;;1.70;;
12861;SDS011;6499;66.348;14.134;2023-07-09T06:57:21;1.70;;;1.60;;
12861;SDS011;6499;66.348;14.134;2023-07-09T06:59:47;1.50;;;1.30;;
12861;SDS011;6499;66.348;14.134;2023-07-09T07:02:14;2.23;;;1.57;;
12861;SDS011;6499;66.348;14.134;2023-07-09T07:04:42;2.00;;;1.80;;
12861;SDS011;6499;66.348;14.134;2023-07-09T07:07:09;1.93;;;1.63;;
12861;SDS011;6499;66.348;14.134;2023-07-09T07:09:35;2.07;;;1.60;;
12861;SDS011;6499;66.348;14.134;2023-07-09T07:12:02;2.40;;;1.60;;
12861;SDS011;6499;66.348;14.134;2023-07-09T07:14:29;1.93;;;1.70;;
12861;SDS011;6499;66.348;14.134;2023-07-09T07:16:56;1.83;;;1.57;;
12861;SDS011;6499;66.348;14.134;2023-07-09T07:19:23;1.40;;;1.30;;
12861;SDS011;6499;66.348;14.134;2023-07-09T07:21:51;1.87;;;1.50;;
12861;SDS011;6499;66.348;14.134;2023-07-09T07:24:17;1.60;;;1.43;;
12861;SDS011;6499;66.348;14.134;2023-07-09T07:26:44;1.60;;;1.33;;
12861;SDS011;6499;66.348;14.134;2023-07-09T07:29:10;1.77;;;1.40;;
12861;SDS011;6499;66.348;14.134;2023-07-09T07:31:37;1.73;;;1.50;;
12861;SDS011;6499;66.348;14.134;2023-07-09T07:34:04;1.43;;;1.33;;
12861;SDS011;6499;66.348;14.134;2023-07-09T07:36:30;2.50;;;1.60;;
12861;SDS011;6499;66.348;14.134;2023-07-09T07:38:58;1.90;;;1.40;;
12861;SDS011;6499;66.348;14.134;2023-07-09T07:41:25;1.67;;;1.57;;
12861;SDS011;6499;66.348;14.134;2023-07-09T07:43:52;1.57;;;1.47;;
12861;SDS011;6499;66.348;14.134;2023-07-09T07:46:18;1.50;;;1.40;;
12861;SDS011;6499;66.348;14.134;2023-07-09T07:48:45;1.53;;;1.40;;
12861;SDS011;6499;66.348;14.134;2023-07-09T07:51:11;2.17;;;1.40;;
12861;SDS011;6499;66.348;14.134;2023-07-09T07:53:38;1.50;;;1.40;;
12861;SDS011;6499;66.348;14.134;2023-07-09T07:56:06;1.93;;;1.50;;
12861;SDS011;6499;66.348;14.134;2023-07-09T07:58:33;2.00;;;1.30;;
12861;SDS011;6499;66.348;14.134;2023-07-09T08:00:59;1.80;;;1.40;;
12861;SDS011;6499;66.348;14.134;2023-07-09T08:03:26;2.10;;;1.53;;
12861;SDS011;6499;66.348;14.134;2023-07-09T08:05:52;1.50;;;1.40;;
12861;SDS011;6499;66.348;14.134;2023-07-09T08:08:19;1.40;;;1.30;;
12861;SDS011;6499;66.348;14.134;2023-07-09T08:10:46;1.83;;;1.30;;
12861;SDS011;6499;66.348;14.134;2023-07-09T08:13:14;1.30;;;1.20;;
12861;SDS011;6499;66.348;14.134;2023-07-09T08:15:40;1.83;;;1.47;;
12861;SDS011;6499;66.348;14.134;2023-07-09T08:18:07;1.60;;;1.50;;
12861;SDS011;6499;66.348;14.134;2023-07-09T08:20:34;1.60;;;1.50;;
12861;SDS011;6499;66.348;14.134;2023-07-09T08:23:00;1.30;;;1.20;;
12861;SDS011;6499;66.348;14.134;2023-07-09T08:25:27;1.70;;;1.60;;
12861;SDS011;6499;66.348;14.134;2023-07-09T08:27:54;1.50;;;1.40;;
12861;SDS011;6499;66.348;14.134;2023-07-09T08:30:22;1.83;;;1.60;;
12861;SDS011;6499;66.348;14.134;2023-07-09T08:32:48;1.50;;;1.40;;
12861;SDS011;6499;66.348;14.134;2023-07-09T08:35:15;1.67;;;1.57;;
12861;SDS011;6499;66.348;14.134;2023-07-09T08:37:42;1.70;;;1.60;;
12861;SDS011;6499;66.348;14.134;2023-07-09T08:40:10;1.60;;;1.50;;
12861;SDS011;6499;66.348;14.134;2023-07-09T08:42:39;1.60;;;1.50;;
12861;SDS011;6499;66.348;14.134;2023-07-09T08:45:16;2.17;;;1.97;;
12861;SDS011;6499;66.348;14.134;2023-07-09T08:47:47;3.70;;;3.40;;
12861;SDS011;6499;66.348;14.134;2023-07-09T08:50:18;2.10;;;2.00;;
12861;SDS011;6499;66.348;14.134;2023-07-09T08:52:47;3.90;;;3.60;;
12861;SDS011;6499;66.348;14.134;2023-07-09T08:55:15;6.20;;;5.70;;
12861;SDS011;6499;66.348;14.134;2023-07-09T08:57:43;6.57;;;6.07;;
12861;SDS011;6499;66.348;14.134;2023-07-09T09:00:13;10.97;;;10.00;;
12861;SDS011;6499;66.348;14.134;2023-07-09T09:02:44;9.70;;;8.80;;
12861;SDS011;6499;66.348;14.134;2023-07-09T09:05:13;9.40;;;8.50;;
12861;SDS011;6499;66.348;14.134;2023-07-09T09:07:43;8.37;;;7.60;;
12861;SDS011;6499;66.348;14.134;2023-07-09T09:10:11;9.27;;;8.47;;
12861;SDS011;6499;66.348;14.134;2023-07-09T09:12:40;7.83;;;7.13;;
12861;SDS011;6499;66.348;14.134;2023-07-09T09:15:10;8.27;;;7.57;;
12861;SDS011;6499;66.348;14.134;2023-07-09T09:17:39;8.70;;;8.00;;
12861;SDS011;6499;66.348;14.134;2023-07-09T09:20:07;10.57;;;9.60;;
12861;SDS011;6499;66.348;14.134;2023-07-09T09:22:40;12.43;;;11.30;;
12861;SDS011;6499;66.348;14.134;2023-07-09T09:25:11;12.93;;;11.80;;
12861;SDS011;6499;66.348;14.134;2023-07-09T09:27:42;11.73;;;10.63;;
12861;SDS011;6499;66.348;14.134;2023-07-09T09:30:09;12.73;;;11.63;;
12861;SDS011;6499;66.348;14.134;2023-07-09T09:32:41;11.00;;;10.00;;
12861;SDS011;6499;66.348;14.134;2023-07-09T09:35:11;11.20;;;10.10;;
12861;SDS011;6499;66.348;14.134;2023-07-09T09:37:40;10.53;;;9.63;;
12861;SDS011;6499;66.348;14.134;2023-07-09T09:40:08;9.67;;;8.87;;
12861;SDS011;6499;66.348;14.134;2023-07-09T09:42:35;9.73;;;8.83;;
12861;SDS011;6499;66.348;14.134;2023-07-09T09:45:02;9.77;;;8.87;;
12861;SDS011;6499;66.348;14.134;2023-07-09T09:47:28;8.83;;;8.03;;
12861;SDS011;6499;66.348;14.134;2023-07-09T09:49:55;8.30;;;7.60;;
12861;SDS011;6499;66.348;14.134;2023-07-09T09:52:25;5.50;;;5.10;;
12861;SDS011;6499;66.348;14.134;2023-07-09T09:54:56;6.43;;;5.93;;
12861;SDS011;6499;66.348;14.134;2023-07-09T09:57:27;5.90;;;5.40;;
12861;SDS011;6499;66.348;14.134;2023-07-09T09:59:54;5.60;;;5.20;;
12861;SDS011;6499;66.348;14.134;2023-07-09T10:02:21;5.37;;;4.97;;
12861;SDS011;6499;66.348;14.134;2023-07-09T10:04:48;5.53;;;4.97;;
12861;SDS011;6499;66.348;14.134;2023-07-09T10:07:18;4.73;;;4.33;;
12861;SDS011;6499;66.348;14.134;2023-07-09T10:09:47;4.10;;;3.80;;
12861;SDS011;6499;66.348;14.134;2023-07-09T10:12:17;4.40;;;4.00;;
12861;SDS011;6499;66.348;14.134;2023-07-09T10:14:47;3.93;;;3.63;;
12861;SDS011;6499;66.348;14.134;2023-07-09T10:17:18;4.17;;;3.73;;
12861;SDS011;6499;66.348;14.134;2023-07-09T10:19:48;4.73;;;4.33;;
12861;SDS011;6499;66.348;14.134;2023-07-09T10:22:20;5.37;;;4.97;;
12861;SDS011;6499;66.348;14.134;2023-07-09T10:24:51;4.87;;;4.50;;
12861;SDS011;6499;66.348;14.134;2023-07-09T10:27:22;5.07;;;4.67;;
12861;SDS011;6499;66.348;14.134;2023-07-09T10:29:55;5.33;;;4.93;;
12861;SDS011;6499;66.348;14.134;2023-07-09T10:32:30;5.40;;;5.00;;
12861;SDS011;6499;66.348;14.134;2023-07-09T10:35:01;5.33;;;4.83;;
12861;SDS011;6499;66.348;14.134;2023-07-09T10:40:21;5.07;;;4.67;;
12861;SDS011;6499;66.348;14.134;2023-07-09T10:42:54;5.40;;;5.00;;
12861;SDS011;6499;66.348;14.134;2023-07-09T10:45:22;6.60;;;6.10;;
12861;SDS011;6499;66.348;14.134;2023-07-09T10:47:53;6.73;;;6.23;;
12861;SDS011;6499;66.348;14.134;2023-07-09T10:50:24;7.80;;;7.20;;
12861;SDS011;6499;66.348;14.134;2023-07-09T10:52:53;8.40;;;7.80;;
12861;SDS011;6499;66.348;14.134;2023-07-09T10:55:24;8.27;;;7.60;;
12861;SDS011;6499;66.348;14.134;2023-07-09T10:57:55;7.90;;;7.30;;
12861;SDS011;6499;66.348;14.134;2023-07-09T11:00:25;8.30;;;7.70;;
12861;SDS011;6499;66.348;14.134;2023-07-09T11:02:56;7.90;;;7.30;;
12861;SDS011;6499;66.348;14.134;2023-07-09T11:05:25;7.43;;;6.83;;
12861;SDS011;6499;66.348;14.134;2023-07-09T11:07:54;6.87;;;6.37;;
12861;SDS011;6499;66.348;14.134;2023-07-09T11:10:25;6.63;;;6.13;;
12861;SDS011;6499;66.348;14.134;2023-07-09T11:12:56;7.10;;;6.60;;
12861;SDS011;6499;66.348;14.134;2023-07-09T11:15:25;6.43;;;5.93;;
12861;SDS011;6499;66.348;14.134;2023-07-09T11:17:53;5.80;;;5.40;;
12861;SDS011;6499;66.348;14.134;2023-07-09T11:20:24;5.77;;;5.33;;
12861;SDS011;6499;66.348;14.134;2023-07-09T11:22:52;5.83;;;5.43;;
12861;SDS011;6499;66.348;14.134;2023-07-09T11:25:26;5.77;;;5.37;;
12861;SDS011;6499;66.348;14.134;2023-07-09T11:28:01;5.20;;;4.80;;
12861;SDS011;6499;66.348;14.134;2023-07-09T11:30:28;5.37;;;4.97;;
12861;SDS011;6499;66.348;14.134;2023-07-09T11:32:56;5.97;;;5.37;;
12861;SDS011;6499;66.348;14.134;2023-07-09T11:35:23;6.17;;;5.60;;
12861;SDS011;6499;66.348;14.134;2023-07-09T11:37:50;5.47;;;5.07;;
12861;SDS011;6499;66.348;14.134;2023-07-09T11:40:18;4.50;;;4.20;;
12861;SDS011;6499;66.348;14.134;2023-07-09T11:42:51;4.80;;;4.40;;
12861;SDS011;6499;66.348;14.134;2023-07-09T11:45:21;5.17;;;4.77;;
12861;SDS011;6499;66.348;14.134;2023-07-09T11:47:51;4.83;;;4.53;;
12861;SDS011;6499;66.348;14.134;2023-07-09T11:50:22;4.93;;;4.53;;
12861;SDS011;6499;66.348;14.134;2023-07-09T11:52:50;5.00;;;4.60;;
12861;SDS011;6499;66.348;14.134;2023-07-09T11:55:25;3.97;;;3.67;;
12861;SDS011;6499;66.348;14.134;2023-07-09T11:57:53;4.30;;;4.00;;
12861;SDS011;6499;66.348;14.134;2023-07-09T12:00:21;4.20;;;3.90;;
12861;SDS011;6499;66.348;14.134;2023-07-09T12:02:47;4.40;;;4.00;;
12861;SDS011;6499;66.348;14.134;2023-07-09T12:05:15;4.80;;;4.50;;
12861;SDS011;6499;66.348;14.134;2023-07-09T12:07:44;4.97;;;4.57;;
12861;SDS011;6499;66.348;14.134;2023-07-09T12:10:15;5.47;;;4.97;;
12861;SDS011;6499;66.348;14.134;2023-07-09T12:12:43;5.33;;;4.93;;
12861;SDS011;6499;66.348;14.134;2023-07-09T12:15:12;5.10;;;4.70;;
12861;SDS011;6499;66.348;14.134;2023-07-09T12:17:43;4.63;;;4.33;;
12861;SDS011;6499;66.348;14.134;2023-07-09T12:20:18;4.40;;;4.10;;
12861;SDS011;6499;66.348;14.134;2023-07-09T12:22:45;4.23;;;3.93;;
12861;SDS011;6499;66.348;14.134;2023-07-09T12:25:17;4.13;;;3.83;;
12861;SDS011;6499;66.348;14.134;2023-07-09T12:27:44;4.10;;;3.80;;
12861;SDS011;6499;66.348;14.134;2023-07-09T12:30:11;4.30;;;4.00;;
12861;SDS011;6499;66.348;14.134;2023-07-09T12:32:44;4.43;;;4.10;;
12861;SDS011;6499;66.348;14.134;2023-07-09T12:35:12;4.50;;;4.10;;
12861;SDS011;6499;66.348;14.134;2023-07-09T12:37:39;4.03;;;3.73;;
12861;SDS011;6499;66.348;14.134;2023-07-09T12:40:11;3.40;;;3.20;;
12861;SDS011;6499;66.348;14.134;2023-07-09T12:42:38;4.17;;;3.87;;
12861;SDS011;6499;66.348;14.134;2023-07-09T12:45:05;4.10;;;3.80;;
12861;SDS011;6499;66.348;14.134;2023-07-09T12:47:32;4.40;;;4.10;;
12861;SDS011;6499;66.348;14.134;2023-07-09T12:50:17;4.13;;;3.83;;
12861;SDS011;6499;66.348;14.134;2023-07-09T12:52:47;3.90;;;3.60;;
12861;SDS011;6499;66.348;14.134;2023-07-09T12:55:20;3.77;;;3.47;;
12861;SDS011;6499;66.348;14.134;2023-07-09T12:57:47;3.87;;;3.43;;
12861;SDS011;6499;66.348;14.134;2023-07-09T13:00:14;3.70;;;3.40;;
12861;SDS011;6499;66.348;14.134;2023-07-09T13:02:40;3.47;;;3.17;;
12861;SDS011;6499;66.348;14.134;2023-07-09T13:05:16;3.47;;;3.17;;
12861;SDS011;6499;66.348;14.134;2023-07-09T13:07:45;3.43;;;3.23;;
12861;SDS011;6499;66.348;14.134;2023-07-09T13:10:15;3.47;;;3.17;;
12861;SDS011;6499;66.348;14.134;2023-07-09T13:12:44;3.57;;;3.27;;
12861;SDS011;6499;66.348;14.134;2023-07-09T13:15:27;3.80;;;3.50;;
12861;SDS011;6499;66.348;14.134;2023-07-09T13:17:58;3.77;;;3.57;;
12861;SDS011;6499;66.348;14.134;2023-07-09T13:20:26;3.30;;;3.10;;
12861;SDS011;6499;66.348;14.134;2023-07-09T13:22:55;4.47;;;3.30;;
12861;SDS011;6499;66.348;14.134;2023-07-09T13:30:56;2.80;;;2.60;;
12861;SDS011;6499;66.348;14.134;2023-07-09T13:33:29;2.97;;;2.77;;
12861;SDS011;6499;66.348;14.134;2023-07-09T13:36:03;2.40;;;2.30;;
12861;SDS011;6499;66.348;14.134;2023-07-09T13:38:32;2.20;;;2.10;;
12861;SDS011;6499;66.348;14.134;2023-07-09T13:41:00;2.30;;;2.20;;
12861;SDS011;6499;66.348;14.134;2023-07-09T13:43:27;2.00;;;1.90;;
12861;SDS011;6499;66.348;14.134;2023-07-09T13:45:54;1.97;;;1.87;;
12861;SDS011;6499;66.348;14.134;2023-07-09T13:48:22;1.57;;;1.47;;
12861;SDS011;6499;66.348;14.134;2023-07-09T13:50:49;1.70;;;1.60;;
12861;SDS011;6499;66.348;14.134;2023-07-09T13:53:19;1.50;;;1.40;;
12861;SDS011;6499;66.348;14.134;2023-07-09T13:55:46;2.20;;;1.47;;
12861;SDS011;6499;66.348;14.134;2023-07-09T13:58:13;1.60;;;1.50;;
12861;SDS011;6499;66.348;14.134;2023-07-09T14:00:41;1.70;;;1.60;;
12861;SDS011;6499;66.348;14.134;2023-07-09T14:03:10;1.40;;;1.30;;
12861;SDS011;6499;66.348;14.134;2023-07-09T14:05:39;1.50;;;1.40;;
12861;SDS011;6499;66.348;14.134;2023-07-09T14:08:06;1.77;;;1.67;;
12861;SDS011;6499;66.348;14.134;2023-07-09T14:10:34;1.90;;;1.80;;
12861;SDS011;6499;66.348;14.134;2023-07-09T14:13:01;1.87;;;1.70;;
12861;SDS011;6499;66.348;14.134;2023-07-09T14:15:28;2.10;;;1.90;;
12861;SDS011;6499;66.348;14.134;2023-07-09T14:17:55;1.70;;;1.60;;
12861;SDS011;6499;66.348;14.134;2023-07-09T14:20:22;3.53;;;1.80;;
12861;SDS011;6499;66.348;14.134;2023-07-09T14:22:49;2.77;;;2.00;;
12861;SDS011;6499;66.348;14.134;2023-07-09T14:25:17;2.30;;;2.10;;
12861;SDS011;6499;66.348;14.134;2023-07-09T14:27:46;2.27;;;2.07;;
12861;SDS011;6499;66.348;14.134;2023-07-09T14:30:15;1.60;;;1.50;;
12861;SDS011;6499;66.348;14.134;2023-07-09T14:32:42;1.33;;;1.23;;
12861;SDS011;6499;66.348;14.134;2023-07-09T14:35:10;1.87;;;1.27;;
12861;SDS011;6499;66.348;14.134;2023-07-09T14:37:37;1.50;;;1.40;;
12861;SDS011;6499;66.348;14.134;2023-07-09T14:40:04;1.37;;;1.27;;
12861;SDS011;6499;66.348;14.134;2023-07-09T14:42:31;1.33;;;1.23;;
12861;SDS011;6499;66.348;14.134;2023-07-09T14:44:59;1.53;;;1.27;;
12861;SDS011;6499;66.348;14.134;2023-07-09T14:47:25;1.07;;;1.07;;
12861;SDS011;6499;66.348;14.134;2023-07-09T14:49:53;1.30;;;1.20;;
12861;SDS011;6499;66.348;14.134;2023-07-09T14:52:20;1.87;;;1.30;;
12861;SDS011;6499;66.348;14.134;2023-07-09T14:54:47;1.40;;;1.30;;
12861;SDS011;6499;66.348;14.134;2023-07-09T14:57:17;1.60;;;1.33;;
12861;SDS011;6499;66.348;14.134;2023-07-09T14:59:44;1.50;;;1.37;;
12861;SDS011;6499;66.348;14.134;2023-07-09T15:02:18;1.33;;;1.23;;